Time;durP1;ratioP1;P1;durP2;ratioP2;P2;SDS_P1;SDS_P2;PMS_P1;PMS_P2;Temp;Humidity;BMP_temperature;BMP_pressure;BME280_temperature;BME280_humidity;BME280_pressure;Samples;Min_cycle;Max_cycle;Signal;HPM_P1;HPM_P2
2023/12/02 00:01:42;;;;;;;6.00;3.75;;;;;;;2.78;92.47;100168.53;4989022;28;20037;-75
2023/12/02 00:04:07;;;;;;;6.78;4.25;;;;;;;2.82;92.69;100172.13;4990317;28;20046;-76
2023/12/02 00:06:33;;;;;;;6.32;4.07;;;;;;;2.71;93.04;100170.84;4996477;28;20087;-75
2023/12/02 00:09:01;;;;;;;7.35;4.15;;;;;;;2.70;93.10;100162.13;4989534;28;20489;-74
2023/12/02 00:11:27;;;;;;;6.15;2.97;;;;;;;2.81;92.69;100156.50;4991372;28;20029;-75
2023/12/02 00:13:53;;;;;;;3.83;3.30;;;;;;;2.81;92.51;100165.22;4991098;28;20512;-75
2023/12/02 00:16:18;;;;;;;4.60;3.53;;;;;;;2.78;92.48;100173.06;4991172;28;20041;-75
2023/12/02 00:18:43;;;;;;;8.38;3.97;;;;;;;2.81;92.66;100161.81;4994715;28;20053;-75
2023/12/02 00:21:09;;;;;;;7.05;4.38;;;;;;;2.82;92.67;100160.69;5000124;28;20448;-75
2023/12/02 00:23:35;;;;;;;9.23;4.43;;;;;;;2.86;92.18;100165.09;5013328;28;20033;-74
2023/12/02 00:26:00;;;;;;;5.10;3.83;;;;;;;2.80;92.75;100165.56;4997363;28;20030;-75
2023/12/02 00:28:25;;;;;;;5.43;4.30;;;;;;;2.83;92.54;100157.72;5012812;28;20033;-75
2023/12/02 00:30:51;;;;;;;8.32;4.68;;;;;;;2.83;92.53;100154.31;4996120;28;20038;-75
2023/12/02 00:33:16;;;;;;;5.43;3.28;;;;;;;2.78;92.40;100154.44;5011545;28;20132;-74
2023/12/02 00:35:42;;;;;;;10.52;4.32;;;;;;;2.77;92.80;100151.00;4995471;28;20021;-75
2023/12/02 00:38:07;;;;;;;6.85;3.25;;;;;;;2.70;92.98;100148.06;5010908;28;20030;-75
2023/12/02 00:40:32;;;;;;;7.72;4.70;;;;;;;2.78;93.14;100146.47;4996343;28;20081;-75
2023/12/02 00:42:58;;;;;;;7.75;4.28;;;;;;;2.80;93.00;100146.94;4996428;28;20046;-74
2023/12/02 00:45:23;;;;;;;12.75;3.50;;;;;;;2.67;92.85;100151.34;5002297;28;20038;-75
2023/12/02 00:47:49;;;;;;;10.90;4.25;;;;;;;2.66;94.23;100139.16;4996322;28;20121;-75
2023/12/02 00:50:14;;;;;;;7.57;3.78;;;;;;;2.74;93.62;100147.13;4996967;28;20477;-75
2023/12/02 00:52:40;;;;;;;3.40;3.13;;;;;;;2.69;93.43;100149.16;5008068;28;20037;-74
2023/12/02 00:55:06;;;;;;;6.90;4.05;;;;;;;2.77;93.69;100148.34;4992173;28;20113;-74
2023/12/02 00:57:31;;;;;;;8.43;3.72;;;;;;;2.83;93.10;100149.75;5008480;28;20041;-74
2023/12/02 00:59:57;;;;;;;7.60;3.15;;;;;;;2.86;93.01;100141.16;4996996;28;20088;-73
2023/12/02 01:02:22;;;;;;;4.55;3.50;;;;;;;2.89;92.82;100147.69;5009084;28;20512;-74
2023/12/02 01:04:47;;;;;;;4.10;3.17;;;;;;;2.91;92.47;100145.50;5008373;28;20021;-74
2023/12/02 01:07:13;;;;;;;7.88;3.65;;;;;;;2.88;92.40;100149.59;4990728;28;20038;-75
2023/12/02 01:09:38;;;;;;;6.32;3.33;;;;;;;2.89;92.70;100142.38;5007601;28;20124;-74
2023/12/02 01:12:04;;;;;;;4.95;3.13;;;;;;;2.85;92.71;100136.91;5009043;28;20065;-75
2023/12/02 01:14:29;;;;;;;6.60;3.30;;;;;;;2.81;92.61;100145.84;5008934;28;20041;-75
2023/12/02 01:16:55;;;;;;;6.18;3.30;;;;;;;2.76;93.09;100144.13;5007173;28;20034;-74
2023/12/02 01:19:21;;;;;;;5.82;2.83;;;;;;;2.79;93.04;100146.16;4991290;28;20113;-74
2023/12/02 01:21:47;;;;;;;7.18;3.47;;;;;;;2.84;93.01;100159.28;4991961;28;20030;-75
2023/12/02 01:24:14;;;;;;;7.80;3.50;;;;;;;2.86;92.76;100151.00;5007679;28;20396;-75
2023/12/02 01:26:39;;;;;;;9.38;4.63;;;;;;;2.84;92.84;100158.50;5006338;28;20563;-75
2023/12/02 01:29:05;;;;;;;5.65;4.28;;;;;;;2.88;93.14;100154.13;4990187;28;20095;-75
2023/12/02 01:31:30;;;;;;;5.80;3.40;;;;;;;2.95;92.45;100155.19;4990992;28;20030;-74
2023/12/02 01:33:56;;;;;;;3.88;2.80;;;;;;;2.87;92.43;100145.38;4990293;28;20472;-73
2023/12/02 01:36:21;;;;;;;5.53;3.72;;;;;;;2.83;92.56;100154.31;5007759;28;20040;-75
2023/12/02 01:38:47;;;;;;;7.28;3.28;;;;;;;2.76;92.83;100154.78;5007322;28;20042;-75
2023/12/02 01:41:12;;;;;;;5.43;2.55;;;;;;;2.67;93.74;100154.75;5008824;28;20037;-74
2023/12/02 01:43:39;;;;;;;5.07;3.45;;;;;;;2.60;94.28;100162.44;4996352;28;20156;-75
2023/12/02 01:46:07;;;;;;;4.15;2.80;;;;;;;2.70;93.70;100158.69;5014273;28;20049;-74
2023/12/02 01:48:34;;;;;;;6.80;3.50;;;;;;;2.74;93.50;100151.66;5014301;28;20049;-75
2023/12/02 01:51:00;;;;;;;8.98;3.88;;;;;;;2.73;92.99;100153.50;5011326;28;20049;-74
2023/12/02 01:53:26;;;;;;;7.90;3.90;;;;;;;2.74;93.21;100144.47;4991540;28;20456;-74
2023/12/02 01:55:53;;;;;;;3.80;2.45;;;;;;;2.70;93.44;100151.50;4997014;28;20026;-75
2023/12/02 01:58:19;;;;;;;5.60;3.30;;;;;;;2.69;93.58;100154.47;5007097;28;20132;-75
2023/12/02 02:00:44;;;;;;;3.80;2.70;;;;;;;2.72;93.84;100149.31;5013381;28;20651;-75
2023/12/02 02:03:09;;;;;;;4.13;3.40;;;;;;;2.60;94.11;100146.50;4976691;28;20034;-75
2023/12/02 02:05:36;;;;;;;4.20;2.65;;;;;;;2.67;94.05;100146.78;4992785;28;20042;-75
2023/12/02 02:08:01;;;;;;;5.80;2.78;;;;;;;2.74;93.52;100151.66;5009192;28;20041;-74
2023/12/02 02:10:26;;;;;;;4.80;2.50;;;;;;;2.73;93.34;100150.84;4995408;28;20584;-74
2023/12/02 02:12:52;;;;;;;5.20;2.80;;;;;;;2.79;93.40;100159.44;4996821;28;20038;-75
2023/12/02 02:15:18;;;;;;;3.80;2.25;;;;;;;2.68;93.66;100156.34;4993773;28;20477;-74
2023/12/02 02:17:44;;;;;;;4.68;2.65;;;;;;;2.73;93.50;100150.06;4990942;28;20038;-75
2023/12/02 02:20:10;;;;;;;4.22;2.75;;;;;;;2.81;93.43;100161.81;4998338;28;20120;-74
2023/12/02 02:22:36;;;;;;;8.02;2.70;;;;;;;2.77;93.24;100160.88;4993114;28;20045;-75
2023/12/02 02:25:01;;;;;;;2.40;2.17;;;;;;;2.79;93.21;100162.09;4994295;28;20053;-75
2023/12/02 02:27:26;;;;;;;5.30;3.58;;;;;;;2.74;93.26;100154.31;4993923;28;20046;-75
2023/12/02 02:29:52;;;;;;;4.50;2.63;;;;;;;2.82;93.35;100161.50;5017435;28;20052;-74
2023/12/02 02:32:17;;;;;;;4.00;2.28;;;;;;;2.82;93.45;100153.50;5000215;28;20496;-72
2023/12/02 02:34:43;;;;;;;7.93;3.72;;;;;;;2.80;92.96;100161.03;4978767;28;20069;-75
2023/12/02 02:37:08;;;;;;;4.60;2.13;;;;;;;2.83;93.37;100162.28;4994617;28;20049;-74
2023/12/02 02:39:34;;;;;;;5.05;2.55;;;;;;;2.86;93.18;100162.41;5008892;28;20025;-74
2023/12/02 02:42:05;;;;;;;5.75;3.38;;;;;;;2.88;93.01;100160.22;4982152;28;20053;-75
2023/12/02 02:44:37;;;;;;;3.88;2.85;;;;;;;2.90;92.72;100165.22;4999552;28;20397;-75
2023/12/02 02:47:03;;;;;;;3.97;3.28;;;;;;;2.81;92.82;100157.25;5003055;28;20042;-74
2023/12/02 02:49:28;;;;;;;3.67;2.67;;;;;;;2.75;93.13;100158.50;4978360;28;20045;-75
2023/12/02 02:51:54;;;;;;;3.63;3.03;;;;;;;2.78;92.85;100157.91;4998066;28;20040;-75
2023/12/02 02:54:20;;;;;;;3.03;2.30;;;;;;;2.68;92.99;100164.31;4988876;28;20042;-74
2023/12/02 02:56:49;;;;;;;3.88;2.22;;;;;;;2.75;93.11;100163.81;4994160;28;20674;-75
2023/12/02 02:59:15;;;;;;;5.45;3.10;;;;;;;2.79;93.14;100153.38;5006137;28;20408;-74
2023/12/02 03:01:49;;;;;;;2.63;2.38;;;;;;;2.84;92.54;100161.16;5005251;28;20125;-74
2023/12/02 03:04:18;;;;;;;2.33;2.13;;;;;;;2.84;92.09;100156.63;5006579;28;20038;-74
2023/12/02 03:06:43;;;;;;;6.45;3.78;;;;;;;2.77;92.53;100158.97;5006204;28;20076;-74
2023/12/02 03:09:11;;;;;;;3.47;2.53;;;;;;;2.73;92.68;100158.03;5006104;28;20417;-75
2023/12/02 03:11:37;;;;;;;8.25;3.05;;;;;;;2.76;92.82;100165.41;5005736;28;20042;-75
2023/12/02 03:14:02;;;;;;;3.80;2.10;;;;;;;2.73;93.23;100166.00;4989531;28;20041;-75
2023/12/02 03:16:28;;;;;;;5.43;3.63;;;;;;;2.75;93.42;100161.16;4971818;28;20042;-75
2023/12/02 03:18:53;;;;;;;6.90;3.53;;;;;;;2.74;93.08;100155.09;5005182;28;20045;-75
2023/12/02 03:21:19;;;;;;;4.82;3.35;;;;;;;2.75;92.73;100155.84;5005922;28;20041;-75
2023/12/02 03:23:47;;;;;;;3.40;2.63;;;;;;;2.70;92.94;100156.03;4996066;28;20037;-75
2023/12/02 03:26:12;;;;;;;6.30;3.05;;;;;;;2.69;92.99;100165.09;5013354;28;20061;-75
2023/12/02 03:28:38;;;;;;;2.55;2.35;;;;;;;2.72;93.20;100153.84;5010472;28;20520;-73
2023/12/02 03:31:04;;;;;;;4.63;2.72;;;;;;;2.66;92.94;100157.75;5009865;28;20121;-73
2023/12/02 03:33:29;;;;;;;6.30;3.53;;;;;;;2.74;93.10;100164.94;4997810;28;20030;-75
2023/12/02 03:35:55;;;;;;;3.05;2.83;;;;;;;2.77;93.25;100156.31;4997646;28;20378;-75
2023/12/02 03:38:20;;;;;;;5.45;2.70;;;;;;;2.79;93.18;100154.13;4994568;28;20030;-74
2023/12/02 03:40:45;;;;;;;6.65;2.60;;;;;;;2.83;92.45;100156.97;5008695;28;20180;-75
2023/12/02 03:43:11;;;;;;;4.85;2.55;;;;;;;2.89;92.21;100161.00;5013597;28;20405;-74
2023/12/02 03:45:36;;;;;;;6.65;2.83;;;;;;;2.79;92.30;100151.47;5008213;28;20038;-74
2023/12/02 03:48:02;;;;;;;3.35;2.75;;;;;;;2.75;92.96;100158.50;5012309;28;20029;-75
2023/12/02 03:50:27;;;;;;;3.85;2.58;;;;;;;2.75;92.56;100158.50;5011624;28;20424;-74
2023/12/02 03:52:53;;;;;;;6.25;2.72;;;;;;;2.79;92.73;100158.69;4996942;28;20030;-74
2023/12/02 03:55:19;;;;;;;4.13;2.65;;;;;;;2.85;92.30;100157.41;5008882;28;20029;-74
2023/12/02 03:57:44;;;;;;;6.78;3.60;;;;;;;2.83;92.33;100159.63;5008032;28;20040;-75
2023/12/02 04:00:13;;;;;;;2.55;2.08;;;;;;;2.83;92.46;100159.63;5012667;28;20034;-75
2023/12/02 04:02:42;;;;;;;4.47;2.75;;;;;;;2.84;92.33;100161.97;4979818;28;20053;-75
2023/12/02 04:05:14;;;;;;;4.32;2.90;;;;;;;2.87;92.31;100168.50;4991441;28;20034;-75
2023/12/02 04:07:41;;;;;;;3.17;2.80;;;;;;;2.87;92.33;100165.84;5010515;28;20338;-75
2023/12/02 04:10:07;;;;;;;2.22;1.77;;;;;;;2.87;92.33;100166.63;5006081;28;20131;-75
2023/12/02 04:12:34;;;;;;;6.05;3.42;;;;;;;2.86;91.83;100170.41;4995036;28;20037;-74
2023/12/02 04:14:59;;;;;;;3.75;3.25;;;;;;;2.87;91.80;100166.63;4997478;28;20038;-75
2023/12/02 04:17:25;;;;;;;3.60;2.58;;;;;;;2.86;91.95;100170.41;4994616;28;20026;-75
2023/12/02 04:19:53;;;;;;;2.75;2.20;;;;;;;2.84;91.98;100179.78;5014340;28;20040;-75
2023/12/02 04:22:19;;;;;;;3.90;2.53;;;;;;;2.81;92.11;100167.13;5011516;28;20029;-75
2023/12/02 04:24:48;;;;;;;9.02;2.97;;;;;;;2.83;92.07;100162.28;4980612;28;20033;-75
2023/12/02 04:27:13;;;;;;;6.75;2.75;;;;;;;2.84;92.11;100161.97;5009150;28;20042;-74
2023/12/02 04:29:41;;;;;;;3.45;2.42;;;;;;;2.86;92.05;100162.41;4991754;28;20069;-75
2023/12/02 04:32:10;;;;;;;3.63;1.80;;;;;;;2.85;91.78;100163.50;4994092;28;20493;-75
2023/12/02 04:34:36;;;;;;;8.05;2.72;;;;;;;2.90;91.56;100178.53;5015082;28;20038;-76
2023/12/02 04:37:01;;;;;;;4.95;3.05;;;;;;;2.88;91.55;100172.72;4980204;28;20033;-75
2023/12/02 04:39:28;;;;;;;3.47;3.20;;;;;;;2.84;91.65;100167.28;4995883;28;20052;-73
2023/12/02 04:41:53;;;;;;;4.90;3.30;;;;;;;2.86;91.89;100169.59;5006998;28;20433;-73
2023/12/02 04:44:20;;;;;;;4.97;2.97;;;;;;;2.76;91.89;100173.38;4997907;28;20044;-74
2023/12/02 04:46:45;;;;;;;3.00;2.38;;;;;;;2.77;92.21;100171.50;5011894;28;20056;-74
2023/12/02 04:49:12;;;;;;;2.35;2.10;;;;;;;2.80;91.94;100181.50;4992428;28;20033;-74
2023/12/02 04:51:38;;;;;;;5.68;3.20;;;;;;;2.84;92.29;100180.56;4980734;28;20032;-74
2023/12/02 04:54:03;;;;;;;6.00;3.60;;;;;;;2.83;92.19;100181.66;5015394;28;20029;-74
2023/12/02 04:56:30;;;;;;;7.32;3.78;;;;;;;2.83;92.12;100179.00;4998688;28;20026;-72
2023/12/02 04:58:56;;;;;;;3.38;2.92;;;;;;;2.88;92.01;100184.16;4995377;28;20512;-74
2023/12/02 05:01:21;;;;;;;5.55;2.17;;;;;;;2.84;91.69;100185.09;4976848;28;20048;-71
2023/12/02 05:03:47;;;;;;;8.02;3.45;;;;;;;2.75;92.51;100177.13;4990579;28;20045;-74
2023/12/02 05:06:17;;;;;;;5.72;3.55;;;;;;;2.79;92.27;100185.25;4989573;28;20042;-71
2023/12/02 05:08:44;;;;;;;5.03;2.58;;;;;;;2.79;92.26;100194.00;5007273;28;20204;-74
2023/12/02 05:11:18;;;;;;;4.63;2.42;;;;;;;2.82;92.07;100196.03;4990539;28;20107;-74
2023/12/02 05:13:45;;;;;;;4.53;3.33;;;;;;;2.81;92.36;100194.47;4991759;28;20108;-74
2023/12/02 05:16:11;;;;;;;7.78;3.03;;;;;;;2.88;91.86;100196.66;4979333;28;20461;-74
2023/12/02 05:18:40;;;;;;;3.47;1.85;;;;;;;2.82;91.79;100203.22;5014401;28;20061;-74
2023/12/02 05:21:05;;;;;;;5.30;2.90;;;;;;;2.85;91.75;100202.59;5000772;28;20050;-74
2023/12/02 05:23:31;;;;;;;7.47;3.40;;;;;;;2.83;92.03;100197.59;5009150;28;20062;-74
2023/12/02 05:25:56;;;;;;;5.05;2.83;;;;;;;2.79;91.74;100196.66;4996120;28;20049;-73
2023/12/02 05:28:22;;;;;;;3.85;2.67;;;;;;;2.77;91.85;100201.50;4983077;28;20120;-74
2023/12/02 05:30:47;;;;;;;3.67;3.03;;;;;;;2.80;92.28;100195.56;5014903;28;20025;-74
2023/12/02 05:33:13;;;;;;;6.88;2.75;;;;;;;2.81;92.16;100196.38;5018638;28;20040;-74
2023/12/02 05:35:38;;;;;;;3.30;2.45;;;;;;;2.80;91.92;100202.75;4986470;28;20029;-74
2023/12/02 05:38:04;;;;;;;10.30;3.08;;;;;;;2.86;91.86;100196.97;4999318;28;20098;-74
2023/12/02 05:40:30;;;;;;;4.15;2.17;;;;;;;2.85;91.87;100198.06;4996415;28;20041;-74
2023/12/02 05:42:56;;;;;;;2.45;2.22;;;;;;;2.87;92.26;100201.19;4996192;28;20425;-74
2023/12/02 05:45:21;;;;;;;3.50;3.17;;;;;;;2.81;92.07;100193.72;4999761;28;20065;-74
2023/12/02 05:47:49;;;;;;;3.78;2.40;;;;;;;2.90;91.72;100189.94;4991054;28;20034;-74
2023/12/02 05:50:18;;;;;;;;;;;;;;;2.62;92.68;100197.47;5011206;28;20041;-74
2023/12/02 05:52:43;;;;;;;3.88;2.35;;;;;;;2.63;92.96;100196.34;4992477;28;19921;-71
2023/12/02 05:55:09;;;;;;;2.25;2.05;;;;;;;2.67;92.92;100188.56;5007041;28;20082;-74
2023/12/02 05:57:34;;;;;;;5.88;3.08;;;;;;;2.70;93.20;100193.22;5006166;28;20056;-74
2023/12/02 06:00:00;;;;;;;6.45;3.22;;;;;;;2.73;92.98;100185.41;4992886;28;20404;-74
2023/12/02 06:02:25;;;;;;;8.48;2.15;;;;;;;2.73;92.73;100197.91;4990963;28;20034;-74
2023/12/02 06:04:51;;;;;;;4.00;2.78;;;;;;;2.79;92.71;100190.59;4992348;28;20034;-74
2023/12/02 06:07:19;;;;;;;5.40;2.80;;;;;;;2.66;92.70;100193.09;4994435;28;20041;-74
2023/12/02 06:09:44;;;;;;;4.78;2.75;;;;;;;2.68;93.33;100198.88;4988510;28;20448;-74
2023/12/02 06:12:10;;;;;;;5.57;3.17;;;;;;;2.69;93.60;100204.97;5009557;28;20034;-73
2023/12/02 06:14:36;;;;;;;2.55;2.28;;;;;;;2.76;93.26;100205.28;5011396;28;20036;-74
2023/12/02 06:17:03;;;;;;;3.53;2.30;;;;;;;2.87;92.35;100214.47;5011767;28;20034;-74
2023/12/02 06:19:28;;;;;;;12.75;2.83;;;;;;;2.90;92.11;100216.53;5012942;28;20069;-74
2023/12/02 06:21:54;;;;;;;5.68;3.75;;;;;;;2.86;92.28;100226.22;4996051;28;20135;-74
2023/12/02 06:24:19;;;;;;;3.63;2.70;;;;;;;2.89;92.38;100211.50;5008130;28;20505;-74
2023/12/02 06:26:44;;;;;;;5.53;4.10;;;;;;;2.81;92.03;100226.38;5010587;28;20026;-73
2023/12/02 06:29:10;;;;;;;4.45;2.80;;;;;;;2.69;92.30;100229.66;4992294;28;20041;-73
2023/12/02 06:31:36;;;;;;;4.78;3.20;;;;;;;2.76;92.79;100229.19;4998221;28;20044;-74
2023/12/02 06:34:01;;;;;;;4.07;2.65;;;;;;;2.79;92.11;100223.25;4990079;28;20045;-74
2023/12/02 06:36:27;;;;;;;5.07;2.47;;;;;;;2.81;92.17;100231.69;5011493;28;20109;-73
2023/12/02 06:38:52;;;;;;;5.93;3.10;;;;;;;2.88;91.52;100229.34;5009469;28;20072;-74
2023/12/02 06:41:20;;;;;;;6.07;3.15;;;;;;;2.82;91.71;100227.94;5008453;28;20068;-74
2023/12/02 06:43:46;;;;;;;3.72;2.63;;;;;;;2.79;91.82;100236.53;5007429;28;20064;-74
2023/12/02 06:46:22;;;;;;;5.03;3.15;;;;;;;2.79;92.12;100239.19;4988531;28;20112;-73
2023/12/02 06:48:48;;;;;;;2.33;1.92;;;;;;;2.84;91.91;100236.38;4986730;28;20065;-74
2023/12/02 06:51:14;;;;;;;8.65;2.65;;;;;;;2.87;91.85;100251.69;5006174;28;20574;-74
2023/12/02 06:53:40;;;;;;;6.35;3.88;;;;;;;2.85;91.68;100255.75;4988969;28;20041;-74
2023/12/02 06:56:19;;;;;;;5.25;2.70;;;;;;;2.86;91.62;100250.16;4988917;28;20029;-74
2023/12/02 06:58:45;;;;;;;4.25;2.92;;;;;;;2.82;91.85;100251.88;4992485;28;20069;-73
2023/12/02 07:01:10;;;;;;;3.78;3.20;;;;;;;2.86;91.88;100262.66;5004765;28;20116;-74
2023/12/02 07:03:39;;;;;;;7.68;3.58;;;;;;;2.83;91.92;100261.41;4992914;28;20048;-73
2023/12/02 07:06:04;;;;;;;7.47;3.33;;;;;;;2.79;92.30;100267.66;5004844;28;20042;-74
2023/12/02 07:08:30;;;;;;;3.33;2.55;;;;;;;2.83;91.82;100269.38;4993681;28;20029;-74
2023/12/02 07:10:56;;;;;;;6.15;3.75;;;;;;;2.83;92.10;100271.25;5005275;28;20048;-74
2023/12/02 07:13:21;;;;;;;5.78;3.17;;;;;;;2.88;92.04;100268.44;4988717;28;20038;-74
2023/12/02 07:15:47;;;;;;;9.45;3.50;;;;;;;2.86;91.71;100274.06;5005821;28;20416;-74
2023/12/02 07:18:12;;;;;;;3.25;2.90;;;;;;;2.85;91.81;100272.50;5005676;28;20046;-73
2023/12/02 07:20:37;;;;;;;5.45;3.22;;;;;;;2.86;91.61;100279.41;5005538;28;20053;-74
2023/12/02 07:23:06;;;;;;;2.80;2.28;;;;;;;2.89;91.70;100281.41;4997769;28;20132;-74
2023/12/02 07:25:31;;;;;;;5.20;3.42;;;;;;;2.87;91.78;100283.59;4991640;28;20041;-74
2023/12/02 07:27:57;;;;;;;3.33;2.38;;;;;;;2.90;91.63;100290.19;4977365;28;20034;-73
2023/12/02 07:30:22;;;;;;;5.43;3.55;;;;;;;2.87;91.44;100288.13;4993856;28;20054;-74
2023/12/02 07:32:48;;;;;;;6.43;2.97;;;;;;;2.85;91.76;100288.44;5008341;28;20026;-73
2023/12/02 07:35:13;;;;;;;8.13;3.60;;;;;;;2.90;91.67;100284.88;5012909;28;20063;-74
2023/12/02 07:37:38;;;;;;;3.67;3.33;;;;;;;2.89;91.83;100297.38;4998593;28;20038;-73
2023/12/02 07:40:05;;;;;;;4.50;2.90;;;;;;;2.87;91.77;100286.25;5008903;28;20572;-73
2023/12/02 07:42:30;;;;;;;5.40;3.33;;;;;;;2.91;91.69;100294.38;5012850;28;20045;-74
2023/12/02 07:44:56;;;;;;;8.32;3.72;;;;;;;2.94;91.74;100293.78;5001594;28;20504;-74
2023/12/02 07:47:23;;;;;;;3.17;2.85;;;;;;;3.04;91.21;100304.09;5014050;28;20144;-74
2023/12/02 07:49:48;;;;;;;6.55;3.60;;;;;;;3.00;91.05;100306.59;5014230;28;20069;-74
2023/12/02 07:52:14;;;;;;;3.67;2.95;;;;;;;2.99;90.81;100301.59;4993901;28;20064;-73
2023/12/02 07:54:39;;;;;;;4.82;3.00;;;;;;;2.98;91.25;100305.34;4999623;28;20496;-75
2023/12/02 07:57:05;;;;;;;5.07;3.38;;;;;;;3.02;91.16;100306.31;4981719;28;20084;-74
2023/12/02 07:59:30;;;;;;;4.05;3.25;;;;;;;3.02;90.84;100301.75;5019096;28;20034;-73
2023/12/02 08:01:55;;;;;;;5.78;2.72;;;;;;;2.97;90.96;100309.88;5014756;28;20116;-75
2023/12/02 08:04:21;;;;;;;6.53;2.45;;;;;;;2.97;91.70;100312.53;5014535;28;20030;-73
2023/12/02 08:06:47;;;;;;;5.03;3.58;;;;;;;3.01;91.53;100315.34;5009898;28;20767;-71
2023/12/02 08:09:14;;;;;;;4.70;2.83;;;;;;;2.96;91.82;100329.56;4994120;28;20069;-73
2023/12/02 08:11:41;;;;;;;5.45;2.83;;;;;;;3.01;91.70;100326.00;5006214;28;20528;-74
2023/12/02 08:14:06;;;;;;;12.23;3.78;;;;;;;3.04;92.26;100330.69;4994408;28;20046;-74
2023/12/02 08:16:32;;;;;;;6.13;3.80;;;;;;;3.06;92.01;100328.53;5015036;28;20585;-74
2023/12/02 08:18:57;;;;;;;6.70;3.22;;;;;;;3.12;91.72;100325.38;4995995;28;20125;-74
2023/12/02 08:21:22;;;;;;;4.25;2.97;;;;;;;3.14;91.63;100325.06;5012666;28;20062;-74
2023/12/02 08:23:49;;;;;;;2.47;2.25;;;;;;;3.11;92.21;100329.13;4997926;28;20038;-73
2023/12/02 08:26:15;;;;;;;5.82;3.72;;;;;;;3.12;91.97;100344.00;5014998;28;20053;-73
2023/12/02 08:28:40;;;;;;;5.50;2.90;;;;;;;3.14;92.06;100335.69;5015926;28;20029;-73
2023/12/02 08:31:06;;;;;;;7.80;3.92;;;;;;;3.15;92.20;100330.09;4994788;28;20415;-74
2023/12/02 08:33:31;;;;;;;5.47;3.00;;;;;;;3.20;92.03;100339.75;5011797;28;20148;-74
2023/12/02 08:36:00;;;;;;;4.40;2.92;;;;;;;3.21;91.97;100344.00;5001866;28;20030;-74
2023/12/02 08:38:25;;;;;;;11.25;2.75;;;;;;;3.17;92.04;100340.41;5011847;28;20104;-73
2023/12/02 08:40:50;;;;;;;4.68;2.55;;;;;;;3.18;92.29;100347.28;5018393;28;20154;-74
2023/12/02 08:43:16;;;;;;;4.65;2.65;;;;;;;3.27;91.69;100348.84;4999693;28;20389;-74
2023/12/02 08:45:41;;;;;;;4.38;2.92;;;;;;;3.23;91.65;100358.53;5012555;28;20028;-74
2023/12/02 08:48:07;;;;;;;4.55;2.53;;;;;;;3.27;91.88;100356.81;5009690;28;20065;-71
2023/12/02 08:50:32;;;;;;;6.70;3.17;;;;;;;3.26;91.99;100357.94;5011654;28;20075;-75
2023/12/02 08:52:59;;;;;;;4.75;3.40;;;;;;;3.20;92.21;100364.50;5009788;28;20042;-74
2023/12/02 08:55:24;;;;;;;5.65;3.03;;;;;;;3.12;92.81;100361.81;4999527;28;20017;-75
2023/12/02 08:57:50;;;;;;;4.28;2.92;;;;;;;3.21;92.45;100365.28;4990265;28;20029;-75
2023/12/02 09:00:15;;;;;;;7.50;2.88;;;;;;;3.28;92.13;100368.25;5006611;28;20527;-74
2023/12/02 09:02:41;;;;;;;13.48;2.25;;;;;;;3.23;92.34;100371.84;5007384;28;20404;-73
2023/12/02 09:05:08;;;;;;;5.25;3.03;;;;;;;3.24;92.17;100373.41;4989532;28;20042;-73
2023/12/02 09:07:33;;;;;;;8.48;3.42;;;;;;;3.22;92.32;100380.94;5005259;28;20157;-74
2023/12/02 09:09:59;;;;;;;8.60;4.03;;;;;;;3.12;92.72;100375.13;5006480;28;20156;-75
2023/12/02 09:12:24;;;;;;;5.22;4.45;;;;;;;3.17;93.42;100380.31;4989690;28;20026;-74
2023/12/02 09:15:28;;;;;;;7.78;3.50;;;;;;;3.28;92.39;100389.53;5005440;28;20025;-74
2023/12/02 09:18:07;;;;;;;4.55;3.30;;;;;;;3.25;92.38;100385.59;5006128;28;20069;-73
2023/12/02 09:20:43;;;;;;;3.75;2.60;;;;;;;3.26;92.48;100389.84;4988992;28;20072;-72
2023/12/02 09:23:09;;;;;;;8.52;3.80;;;;;;;3.30;92.10;100393.44;5006532;28;20121;-72
2023/12/02 09:25:38;;;;;;;3.97;2.67;;;;;;;3.36;91.77;100391.41;5003188;28;20022;-74
2023/12/02 09:28:07;;;;;;;7.63;3.38;;;;;;;3.27;92.13;100391.41;4987321;28;20133;-72
2023/12/02 09:30:33;;;;;;;7.15;3.17;;;;;;;3.34;91.97;100386.41;5006794;28;20116;-74
2023/12/02 09:32:59;;;;;;;9.10;3.42;;;;;;;3.37;91.80;100382.31;5005651;28;20033;-74
2023/12/02 09:35:24;;;;;;;4.60;3.50;;;;;;;3.41;91.65;100391.25;5005228;28;20040;-74
2023/12/02 09:38:01;;;;;;;7.35;2.97;;;;;;;3.44;91.70;100394.09;5005293;28;20104;-73
2023/12/02 09:40:57;;;;;;;4.68;3.40;;;;;;;3.46;91.38;100391.91;5003290;28;20041;-74
2023/12/02 09:43:43;;;;;;;15.88;4.72;;;;;;;3.50;91.61;100395.47;4993866;28;20044;-72
2023/12/02 09:46:36;;;;;;;3.63;2.38;;;;;;;3.49;91.58;100396.56;5006234;28;20091;-74
2023/12/02 09:49:08;;;;;;;4.57;2.50;;;;;;;3.47;91.61;100392.66;5005072;28;20041;-74
2023/12/02 09:52:18;;;;;;;8.40;3.95;;;;;;;3.46;91.62;100402.53;4993995;28;20061;-73
2023/12/02 09:55:15;;;;;;;2.73;1.93;;;;;;;3.43;92.24;100402.34;5005986;28;21344;-73
2023/12/02 09:58:03;;;;;;;3.85;2.75;;;;;;;3.48;92.00;100400.31;5006478;28;20095;-72
2023/12/02 10:00:50;;;;;;;5.82;3.85;;;;;;;3.47;91.83;100400.63;4988264;28;20069;-74
2023/12/02 10:03:44;;;;;;;6.10;3.53;;;;;;;3.46;92.00;100396.44;5004099;28;20037;-74
2023/12/02 10:06:38;;;;;;;5.60;3.70;;;;;;;3.44;91.94;100394.09;4986505;28;20052;-72
2023/12/02 10:09:28;;;;;;;7.50;3.72;;;;;;;3.48;91.97;100391.56;4986550;28;20046;-74
2023/12/02 10:12:15;;;;;;;8.55;2.72;;;;;;;3.46;91.78;100389.25;5003601;28;20526;-74
2023/12/02 10:14:41;;;;;;;6.30;2.08;;;;;;;3.50;91.77;100397.38;4987618;28;20548;-74
2023/12/02 10:17:13;;;;;;;4.13;2.47;;;;;;;3.55;91.84;100397.19;4977214;28;20106;-74
2023/12/02 10:19:54;;;;;;;4.78;3.90;;;;;;;3.59;91.83;100395.47;5006076;28;20033;-74
2023/12/02 10:22:23;;;;;;;6.57;3.83;;;;;;;3.49;92.21;100391.25;4975930;28;20033;-73
2023/12/02 10:25:13;;;;;;;7.50;3.53;;;;;;;3.61;92.15;100395.94;5007093;28;20618;-73
2023/12/02 10:27:41;;;;;;;5.57;3.50;;;;;;;3.65;91.86;100394.22;4988426;28;20607;-74
2023/12/02 10:30:14;;;;;;;6.75;4.47;;;;;;;3.72;92.01;100388.44;5004438;28;20029;-74
2023/12/02 10:33:18;;;;;;;5.30;3.78;;;;;;;3.76;91.27;100390.13;4990070;28;20523;-74
2023/12/02 10:35:47;;;;;;;4.95;2.97;;;;;;;3.78;91.40;100387.16;4989850;28;20040;-74
2023/12/02 10:38:40;;;;;;;8.00;4.28;;;;;;;3.76;91.37;100394.66;5007436;28;20030;-73
2023/12/02 10:41:34;;;;;;;8.15;3.17;;;;;;;3.75;91.50;100396.56;5008389;28;20041;-73
2023/12/02 10:44:04;;;;;;;9.02;3.22;;;;;;;3.76;91.80;100394.66;5005562;28;20076;-74
2023/12/02 10:46:32;;;;;;;4.82;3.25;;;;;;;3.78;91.44;100384.47;4991017;28;20048;-73
2023/12/02 10:48:58;;;;;;;5.32;2.92;;;;;;;3.78;91.40;100387.16;5008093;28;20111;-74
2023/12/02 10:51:26;;;;;;;5.47;2.70;;;;;;;3.73;91.22;100388.13;4992025;28;20512;-75
2023/12/02 10:53:54;;;;;;;6.50;3.35;;;;;;;3.73;91.08;100390.78;5012087;28;20857;-73
2023/12/02 10:56:23;;;;;;;2.42;2.10;;;;;;;3.71;91.12;100384.19;4995099;28;20025;-74
2023/12/02 10:58:51;;;;;;;5.00;2.42;;;;;;;3.72;91.26;100388.44;4988041;28;20029;-74
2023/12/02 11:01:26;;;;;;;4.50;2.88;;;;;;;3.77;91.65;100386.38;4988135;28;20053;-74
2023/12/02 11:04:04;;;;;;;2.97;2.15;;;;;;;3.68;91.36;100389.03;5004891;28;20088;-73
2023/12/02 11:06:50;;;;;;;4.15;2.88;;;;;;;3.72;91.89;100394.53;5012063;28;20489;-74
2023/12/02 11:09:30;;;;;;;5.85;2.55;;;;;;;3.73;91.51;100398.75;4976609;28;20426;-74
2023/12/02 11:12:04;;;;;;;3.80;2.35;;;;;;;3.72;92.13;100394.53;4993148;28;20492;-74
2023/12/02 11:14:40;;;;;;;4.32;3.38;;;;;;;3.75;91.72;100393.91;4992026;28;20501;-73
2023/12/02 11:17:15;;;;;;;5.35;3.55;;;;;;;3.71;92.04;100398.28;4991930;28;20033;-73
2023/12/02 11:19:49;;;;;;;6.97;3.17;;;;;;;3.67;91.61;100392.81;5007279;28;20034;-74
2023/12/02 11:22:35;;;;;;;7.65;3.17;;;;;;;3.65;92.20;100389.69;4996847;28;20099;-74
2023/12/02 11:25:45;;;;;;;5.95;4.07;;;;;;;3.65;92.03;100387.03;5011744;28;20132;-74
2023/12/02 11:28:23;;;;;;;6.47;2.92;;;;;;;3.70;92.28;100391.38;4972042;28;20057;-74
2023/12/02 11:31:10;;;;;;;5.13;3.28;;;;;;;3.72;92.40;100388.44;5010578;28;20416;-73
2023/12/02 11:33:54;;;;;;;5.20;3.20;;;;;;;3.80;92.16;100400.94;5007237;28;20037;-72
2023/12/02 11:36:47;;;;;;;4.03;2.67;;;;;;;3.80;91.94;100396.41;5007163;28;20529;-74
2023/12/02 11:39:41;;;;;;;3.10;2.17;;;;;;;3.85;91.72;100398.13;4975328;28;20538;-74
2023/12/02 11:42:18;;;;;;;4.55;2.47;;;;;;;3.88;92.07;100400.13;5012312;28;20026;-74